Time;durP1;ratioP1;P1;durP2;ratioP2;P2;SDS_P1;SDS_P2;PMS_P1;PMS_P2;Temp;Humidity;BMP_temperature;BMP_pressure;BME280_temperature;BME280_humidity;BME280_pressure;Samples;Min_cycle;Max_cycle;Signal;HPM_P1;HPM_P2
2023/04/04 00:01:25;;;;;;;1.53;1.43;;;16.30;58.10;17.10;102050.00;;;;4990549;28;20205;-50
2023/04/04 00:03:51;;;;;;;1.50;1.40;;;16.20;58.00;17.10;102034.00;;;;4990054;28;20537;-49
2023/04/04 00:06:19;;;;;;;1.63;1.53;;;16.20;58.10;17.10;102048.00;;;;4989555;28;20184;-51
2023/04/04 00:08:46;;;;;;;1.70;1.60;;;16.20;58.00;17.00;102052.00;;;;4991453;28;20734;-51
2023/04/04 00:11:12;;;;;;;1.57;1.47;;;16.20;58.10;17.00;102044.00;;;;4990292;28;20223;-50
2023/04/04 00:13:38;;;;;;;1.80;1.70;;;16.20;58.10;17.00;102047.00;;;;4988861;28;20204;-50
2023/04/04 00:16:05;;;;;;;1.60;1.50;;;16.20;58.00;17.00;102049.00;;;;4990232;28;20173;-50
2023/04/04 00:18:31;;;;;;;1.50;1.40;;;16.20;58.10;17.00;102054.00;;;;4990225;28;20500;-50
2023/04/04 00:20:57;;;;;;;1.70;1.60;;;16.10;58.00;17.00;102046.00;;;;4991042;28;20183;-50
2023/04/04 00:23:23;;;;;;;1.43;1.33;;;16.10;58.10;17.00;102047.00;;;;4990064;28;20204;-51
2023/04/04 00:25:52;;;;;;;1.70;1.60;;;16.10;58.10;16.90;102042.00;;;;4988739;28;20203;-51
2023/04/04 00:28:18;;;;;;;1.60;1.50;;;16.10;58.10;16.90;102048.00;;;;4989639;28;20235;-49
2023/04/04 00:30:45;;;;;;;1.40;1.30;;;16.10;58.10;16.90;102049.00;;;;4989604;28;20650;-50
2023/04/04 00:33:14;;;;;;;1.50;1.40;;;16.00;58.00;16.90;102060.00;;;;4989284;28;20212;-50
2023/04/04 00:35:40;;;;;;;1.50;1.40;;;16.00;58.10;16.80;102045.00;;;;4989434;28;20184;-50
2023/04/04 00:38:06;;;;;;;1.50;1.40;;;16.00;58.20;16.80;102045.00;;;;4989517;28;20176;-50
2023/04/04 00:40:42;;;;;;;1.50;1.40;;;16.00;58.20;16.80;102051.00;;;;4989457;28;20173;-50
2023/04/04 00:43:08;;;;;;;1.70;1.60;;;16.00;58.10;16.80;102045.00;;;;4987775;28;20846;-50
2023/04/04 00:45:34;;;;;;;1.30;1.30;;;16.00;58.20;16.80;102046.00;;;;4972004;28;20188;-50
2023/04/04 00:48:01;;;;;;;1.60;1.50;;;16.00;58.30;16.70;102041.00;;;;4972024;28;20217;-50
2023/04/04 00:50:27;;;;;;;1.93;1.60;;;15.90;58.30;16.70;102049.00;;;;4989394;28;20717;-49
2023/04/04 00:52:53;;;;;;;1.53;1.43;;;15.90;58.30;16.70;102056.00;;;;4987910;28;20208;-50
2023/04/04 00:55:19;;;;;;;1.60;1.50;;;15.90;58.30;16.70;102052.00;;;;4989257;28;20256;-50
2023/04/04 00:57:44;;;;;;;1.60;1.50;;;15.90;58.30;16.70;102052.00;;;;4989275;28;20762;-50
2023/04/04 01:00:11;;;;;;;1.50;1.40;;;15.80;58.20;16.60;102048.00;;;;4988436;28;20524;-50
2023/04/04 01:02:37;;;;;;;1.40;1.40;;;15.80;58.20;16.60;102054.00;;;;4989114;28;20187;-50
2023/04/04 01:05:03;;;;;;;1.70;1.60;;;15.80;58.20;16.60;102053.00;;;;4988093;28;20180;-50
2023/04/04 01:07:29;;;;;;;1.70;1.60;;;15.80;58.20;16.60;102047.00;;;;4988211;28;20191;-50
2023/04/04 01:09:56;;;;;;;1.70;1.60;;;15.80;58.30;16.60;102046.00;;;;4989282;28;20489;-51
2023/04/04 01:12:22;;;;;;;1.70;1.60;;;15.80;58.20;16.60;102050.00;;;;4987399;28;20265;-49
2023/04/04 01:14:48;;;;;;;1.50;1.40;;;15.80;58.20;16.60;102050.00;;;;4989113;28;20200;-48
2023/04/04 01:17:14;;;;;;;1.63;1.53;;;15.80;58.30;16.60;102054.00;;;;4989179;28;20206;-50
2023/04/04 01:19:58;;;;;;;1.70;1.60;;;15.70;58.20;16.60;102042.00;;;;4987807;28;20190;-50
2023/04/04 01:22:24;;;;;;;1.60;1.50;;;15.70;58.40;16.50;101996.00;;;;4973479;28;20191;-49
2023/04/04 01:24:50;;;;;;;1.47;1.37;;;15.60;58.30;16.50;102040.00;;;;4971618;28;20204;-51
2023/04/04 01:27:15;;;;;;;1.63;1.53;;;15.70;58.40;16.50;102047.00;;;;4971804;28;20674;-50
2023/04/04 01:29:41;;;;;;;1.60;1.50;;;15.70;58.40;16.50;102043.00;;;;4989050;28;20183;-50
2023/04/04 01:32:52;;;;;;;1.63;1.50;;;15.70;58.40;16.50;102048.00;;;;4988971;28;20207;-50
2023/04/04 01:35:21;;;;;;;1.60;1.50;;;15.60;58.30;16.40;102044.00;;;;4988198;28;20184;-51
2023/04/04 01:37:55;;;;;;;1.47;1.37;;;15.60;58.30;16.40;102043.00;;;;4989328;28;20195;-49
2023/04/04 01:40:24;;;;;;;1.60;1.50;;;15.60;58.50;16.40;102041.00;;;;4989174;28;20592;-50
2023/04/04 01:42:50;;;;;;;1.30;1.30;;;15.60;58.40;16.40;102028.00;;;;4971634;28;20180;-51
2023/04/04 01:45:16;;;;;;;1.70;1.60;;;15.60;58.50;16.40;102031.00;;;;4987586;28;20198;-50
2023/04/04 01:47:42;;;;;;;1.60;1.50;;;15.60;58.60;16.30;102022.00;;;;4971161;28;20250;-50
2023/04/04 01:50:09;;;;;;;1.53;1.43;;;15.60;58.60;16.30;102027.00;;;;4988894;28;20549;-50
2023/04/04 01:52:35;;;;;;;1.60;1.50;;;15.50;58.60;16.30;102030.00;;;;4989976;28;20204;-50
2023/04/04 01:55:02;;;;;;;1.60;1.50;;;15.50;58.60;16.30;102025.00;;;;4989931;28;20270;-50
2023/04/04 01:57:28;;;;;;;1.50;1.40;;;15.50;58.50;16.30;102027.00;;;;4989869;28;20164;-50
2023/04/04 01:59:53;;;;;;;1.20;1.20;;;15.50;58.60;16.30;102028.00;;;;4989069;28;20185;-49
2023/04/04 02:02:19;;;;;;;1.53;1.50;;;15.50;58.60;16.30;102021.00;;;;4988814;28;20176;-52
2023/04/04 02:04:45;;;;;;;1.60;1.50;;;15.50;59.20;16.30;102025.00;;;;4989939;28;20223;-49
2023/04/04 02:07:11;;;;;;;1.50;1.40;;;15.40;58.50;16.20;102021.00;;;;4989423;28;20176;-50
2023/04/04 02:09:37;;;;;;;1.27;1.23;;;15.40;58.50;16.20;102026.00;;;;4992376;28;20550;-50
2023/04/04 02:12:03;;;;;;;1.70;1.60;;;15.40;58.60;16.20;102027.00;;;;4992310;28;20208;-50
2023/04/04 02:14:29;;;;;;;1.50;1.40;;;15.40;58.60;16.20;102023.00;;;;4992013;28;20975;-50
2023/04/04 02:16:55;;;;;;;1.50;1.40;;;15.40;58.80;16.20;102021.00;;;;4992467;28;20211;-50
2023/04/04 02:19:20;;;;;;;1.53;1.43;;;15.40;58.90;16.20;102024.00;;;;4992912;28;20181;-50
2023/04/04 02:21:46;;;;;;;1.47;1.37;;;15.40;58.90;16.10;102027.00;;;;4992612;28;20184;-51
2023/04/04 02:24:12;;;;;;;1.37;1.27;;;15.40;58.90;16.10;102025.00;;;;4992073;28;20205;-50
2023/04/04 02:26:37;;;;;;;1.53;1.43;;;15.30;58.90;16.10;102029.00;;;;4991985;28;20183;-51
2023/04/04 02:29:03;;;;;;;1.53;1.43;;;15.30;58.90;16.00;102029.00;;;;4991935;28;20663;-50
2023/04/04 02:31:30;;;;;;;1.60;1.50;;;15.30;58.90;16.10;102012.00;;;;4992001;28;20191;-51
2023/04/04 02:33:56;;;;;;;1.70;1.60;;;15.30;58.80;15.80;102016.00;;;;4991921;28;20215;-51
2023/04/04 02:36:22;;;;;;;1.53;1.43;;;15.30;58.90;16.10;102011.00;;;;4991833;28;20618;-50
2023/04/04 02:38:47;;;;;;;1.50;1.40;;;15.20;58.80;16.00;102015.00;;;;4991805;28;20267;-51
2023/04/04 02:41:13;;;;;;;1.43;1.33;;;15.20;58.70;16.00;102005.00;;;;4991516;28;20211;-51
2023/04/04 02:43:39;;;;;;;1.50;1.40;;;15.20;58.80;16.00;102006.00;;;;4991654;28;20839;-50
2023/04/04 02:46:05;;;;;;;1.70;1.60;;;15.20;58.80;16.00;102006.00;;;;4991557;28;20531;-50
2023/04/04 02:48:30;;;;;;;1.43;1.33;;;15.20;58.80;16.00;102003.00;;;;4991634;28;20259;-50
2023/04/04 02:50:56;;;;;;;1.40;1.30;;;15.20;58.80;15.90;102004.00;;;;4991678;28;20192;-50
2023/04/04 02:53:22;;;;;;;1.30;1.30;;;15.20;58.90;15.90;102011.00;;;;4991262;28;20216;-50
2023/04/04 02:55:48;;;;;;;1.37;1.27;;;15.10;58.80;15.90;101995.00;;;;4991454;28;20308;-51
2023/04/04 02:58:13;;;;;;;1.70;1.60;;;15.10;58.80;15.90;102002.00;;;;4991696;28;20181;-50
2023/04/04 03:00:39;;;;;;;1.60;1.50;;;15.10;58.90;15.90;102003.00;;;;4991456;28;20314;-50
2023/04/04 03:03:06;;;;;;;1.67;1.57;;;15.10;58.90;15.90;102010.00;;;;4991367;28;20250;-50
2023/04/04 03:05:31;;;;;;;1.87;1.43;;;15.10;58.90;15.90;102006.00;;;;4991475;28;20526;-51
2023/04/04 03:07:57;;;;;;;1.50;1.40;;;15.10;58.80;15.80;102008.00;;;;4990247;28;20223;-51
2023/04/04 03:10:24;;;;;;;1.50;1.40;;;15.10;58.80;15.80;102010.00;;;;4990032;28;20172;-50
2023/04/04 03:12:50;;;;;;;1.43;1.33;;;15.10;58.80;15.80;102015.00;;;;4990764;28;20196;-51
2023/04/04 03:15:16;;;;;;;1.37;1.27;;;15.00;58.80;15.80;102010.00;;;;4991044;28;20183;-51
2023/04/04 03:17:42;;;;;;;1.60;1.50;;;15.00;58.80;15.80;102012.00;;;;4991004;28;20666;-51
2023/04/04 03:20:08;;;;;;;1.60;1.50;;;15.00;58.80;15.80;102011.00;;;;4990712;28;20593;-50
2023/04/04 03:22:34;;;;;;;2.03;1.70;;;15.00;58.80;15.70;102011.00;;;;4990416;28;20190;-50
2023/04/04 03:25:00;;;;;;;1.60;1.50;;;15.00;58.80;15.70;102011.00;;;;4990572;28;20191;-50
2023/04/04 03:27:26;;;;;;;1.60;1.50;;;15.00;58.90;15.70;102011.00;;;;4990835;28;20181;-50
2023/04/04 03:29:52;;;;;;;1.60;1.50;;;14.90;58.90;15.70;102009.00;;;;4989580;28;20215;-50
2023/04/04 03:32:17;;;;;;;2.53;1.57;;;14.90;58.90;15.70;101995.00;;;;4985667;28;20209;-49
2023/04/04 03:34:43;;;;;;;2.10;1.80;;;14.90;59.40;15.60;102006.00;;;;4971223;28;20189;-49
2023/04/04 03:37:09;;;;;;;1.70;1.57;;;14.90;59.10;15.60;102009.00;;;;4971219;28;20256;-51
2023/04/04 03:39:35;;;;;;;2.60;1.50;;;14.90;59.10;15.60;102007.00;;;;4971121;28;20177;-50
2023/04/04 03:42:01;;;;;;;2.10;1.60;;;14.90;58.90;15.60;102007.00;;;;4971348;28;20200;-51
2023/04/04 03:44:26;;;;;;;2.27;1.60;;;14.90;58.90;15.60;102000.00;;;;4971194;28;20204;-49
2023/04/04 03:46:52;;;;;;;1.53;1.43;;;14.90;58.90;15.60;102010.00;;;;4972167;28;20228;-50
2023/04/04 03:49:18;;;;;;;1.70;1.60;;;14.80;58.50;15.60;102010.00;;;;4972470;28;20180;-50
2023/04/04 03:51:44;;;;;;;2.70;1.70;;;14.80;58.40;15.50;102003.00;;;;4972203;28;20205;-50
2023/04/04 03:54:10;;;;;;;2.10;1.70;;;14.80;58.40;15.50;101997.00;;;;4971766;28;20196;-50
2023/04/04 03:56:35;;;;;;;1.70;1.60;;;14.70;58.20;15.40;101997.00;;;;4972324;28;20181;-50
2023/04/04 03:59:01;;;;;;;2.10;1.77;;;14.70;58.00;15.40;101992.00;;;;4970907;28;20188;-50
2023/04/04 04:01:27;;;;;;;1.60;1.50;;;14.70;57.90;15.40;102001.00;;;;4972922;28;20267;-50
2023/04/04 04:03:52;;;;;;;3.37;1.70;;;14.70;57.60;15.40;102000.00;;;;4972413;28;20730;-49
2023/04/04 04:06:18;;;;;;;1.73;1.63;;;14.70;57.30;15.30;101989.00;;;;4971809;28;20173;-50
2023/04/04 04:08:44;;;;;;;1.90;1.80;;;14.70;57.20;15.30;101983.00;;;;4971915;28;20177;-50
2023/04/04 04:11:10;;;;;;;2.90;1.90;;;14.70;56.90;15.40;101986.00;;;;4972009;28;20309;-50
2023/04/04 04:13:37;;;;;;;1.73;1.63;;;14.70;56.60;15.40;101977.00;;;;4971557;28;20209;-51
2023/04/04 04:16:03;;;;;;;1.60;1.50;;;14.70;56.60;15.40;101981.00;;;;4972864;28;20200;-50
2023/04/04 04:18:29;;;;;;;2.33;1.70;;;14.80;56.70;15.40;101990.00;;;;4972116;28;20177;-51
2023/04/04 04:20:58;;;;;;;2.27;1.60;;;14.80;56.70;15.40;101989.00;;;;4971641;28;20504;-51
2023/04/04 04:23:24;;;;;;;1.70;1.60;;;14.80;56.80;15.40;101982.00;;;;4971371;28;20288;-50
2023/04/04 04:25:50;;;;;;;2.47;1.67;;;14.80;56.90;15.40;101977.00;;;;4981423;28;20574;-50
2023/04/04 04:28:16;;;;;;;6.03;2.10;;;14.80;57.10;15.50;101980.00;;;;4991585;28;20192;-50
2023/04/04 04:30:43;;;;;;;3.33;1.80;;;14.80;57.10;15.50;101976.00;;;;4989972;28;20176;-49
2023/04/04 04:33:09;;;;;;;6.67;2.10;;;14.80;57.40;15.50;101982.00;;;;4990152;28;20235;-50
2023/04/04 04:35:38;;;;;;;3.73;2.10;;;14.80;57.40;15.50;101980.00;;;;4990398;28;20199;-50
2023/04/04 04:38:05;;;;;;;3.87;1.80;;;14.80;57.60;15.50;101976.00;;;;4990703;28;20207;-49
2023/04/04 04:40:32;;;;;;;5.53;1.97;;;14.80;57.70;15.50;101985.00;;;;4990535;28;20241;-50
2023/04/04 04:42:58;;;;;;;4.83;2.10;;;14.80;57.80;15.50;101984.00;;;;4988360;28;20232;-50
2023/04/04 04:45:24;;;;;;;3.17;1.80;;;14.80;58.00;15.50;101975.00;;;;4989891;28;20219;-50
2023/04/04 04:47:50;;;;;;;2.97;1.63;;;14.80;58.10;15.50;101981.00;;;;4990537;28;20628;-50
2023/04/04 04:50:16;;;;;;;4.30;1.80;;;14.80;58.20;15.40;101978.00;;;;4990564;28;20845;-50
2023/04/04 04:52:42;;;;;;;2.63;1.70;;;14.80;58.20;15.40;101979.00;;;;4989609;28;20694;-50
2023/04/04 04:55:08;;;;;;;3.30;2.00;;;14.80;58.10;15.40;101972.00;;;;4989221;28;20180;-50
2023/04/04 04:57:35;;;;;;;2.60;1.80;;;14.80;57.90;15.40;101986.00;;;;4989659;28;20203;-50
2023/04/04 05:00:02;;;;;;;3.03;2.00;;;14.80;57.80;15.30;101977.00;;;;4989991;28;20187;-51
2023/04/04 05:02:28;;;;;;;3.67;1.93;;;14.70;57.50;15.30;101977.00;;;;4989096;28;20176;-51
2023/04/04 05:04:53;;;;;;;6.23;2.20;;;14.70;57.30;15.30;101983.00;;;;4982314;28;20695;-50
2023/04/04 05:07:19;;;;;;;6.13;2.10;;;14.70;57.30;15.30;101981.00;;;;4970355;28;20184;-50
2023/04/04 05:09:45;;;;;;;2.10;1.90;;;14.70;57.40;15.30;101988.00;;;;4970224;28;20224;-50
2023/04/04 05:12:11;;;;;;;3.13;2.00;;;14.70;57.50;15.30;101983.00;;;;4969785;28;20693;-50
2023/04/04 05:14:36;;;;;;;4.53;1.97;;;14.70;57.60;15.30;101982.00;;;;4970133;28;20200;-51
2023/04/04 05:17:02;;;;;;;3.00;2.00;;;14.70;57.60;15.30;101979.00;;;;4970257;28;20177;-51
2023/04/04 05:19:28;;;;;;;3.97;1.90;;;14.70;57.60;15.30;101978.00;;;;4970439;28;20257;-51
2023/04/04 05:21:53;;;;;;;3.27;1.70;;;14.70;57.60;15.30;101983.00;;;;4970384;28;20231;-51
2023/04/04 05:24:21;;;;;;;3.77;1.93;;;14.70;57.60;15.30;101986.00;;;;4969669;28;20201;-49
2023/04/04 05:26:47;;;;;;;4.37;1.80;;;14.70;57.70;15.30;101982.00;;;;4970209;28;20181;-50
2023/04/04 05:29:13;;;;;;;3.03;1.70;;;14.70;57.70;15.30;101981.00;;;;4970508;28;20199;-50
2023/04/04 05:31:38;;;;;;;5.97;2.00;;;14.70;57.70;15.30;101995.00;;;;4970130;28;20184;-50
2023/04/04 05:34:07;;;;;;;1.93;1.77;;;14.70;57.80;15.30;101992.00;;;;4969911;28;20220;-49
2023/04/04 05:36:36;;;;;;;2.57;1.70;;;14.70;57.80;15.30;101992.00;;;;4970510;28;20548;-50
2023/04/04 05:39:04;;;;;;;2.00;1.80;;;14.70;57.90;15.20;101981.00;;;;4970211;28;20180;-50
2023/04/04 05:41:31;;;;;;;1.80;1.70;;;14.70;57.90;15.20;101984.00;;;;4970726;28;20235;-50
2023/04/04 05:43:56;;;;;;;2.37;1.77;;;14.70;57.90;15.20;101998.00;;;;4972375;28;20240;-50
2023/04/04 05:46:22;;;;;;;1.90;1.80;;;14.70;58.00;15.20;102005.00;;;;4974551;28;20572;-50
2023/04/04 05:48:49;;;;;;;2.03;1.83;;;14.60;57.90;15.20;102001.00;;;;4974380;28;20177;-50
2023/04/04 05:51:15;;;;;;;2.23;1.80;;;14.60;58.00;15.20;101999.00;;;;4974295;28;20619;-52
2023/04/04 05:53:44;;;;;;;3.60;1.70;;;14.60;58.00;15.20;102003.00;;;;4972543;28;20212;-51
2023/04/04 05:56:10;;;;;;;3.03;1.70;;;14.60;58.10;15.20;102008.00;;;;4973916;28;20191;-52
2023/04/04 05:58:36;;;;;;;1.80;1.70;;;14.60;58.00;15.20;102009.00;;;;4975967;28;20188;-51
2023/04/04 06:01:09;;;;;;;1.83;1.70;;;14.60;58.00;15.20;101995.00;;;;4974468;28;20200;-52
2023/04/04 06:03:35;;;;;;;2.27;1.80;;;14.60;58.10;15.20;102000.00;;;;4973471;28;20255;-51
2023/04/04 06:06:04;;;;;;;2.97;1.80;;;14.60;58.20;15.10;102016.00;;;;4973845;28;20767;-52
2023/04/04 06:08:30;;;;;;;2.40;1.80;;;14.60;58.10;15.10;102019.00;;;;4973972;28;20185;-51
2023/04/04 06:10:56;;;;;;;2.70;1.80;;;14.60;58.20;15.10;102019.00;;;;4974011;28;20657;-52
2023/04/04 06:13:22;;;;;;;3.00;1.60;;;14.60;58.20;15.20;102023.00;;;;4974205;28;20237;-51
2023/04/04 06:15:47;;;;;;;1.90;1.70;;;14.60;58.20;15.20;102024.00;;;;4973835;28;20180;-51
2023/04/04 06:18:13;;;;;;;1.70;1.60;;;14.60;58.20;15.20;102021.00;;;;4973579;28;20177;-51
2023/04/04 06:20:40;;;;;;;1.80;1.70;;;14.60;58.30;15.10;102027.00;;;;4973338;28;20192;-51
2023/04/04 06:23:05;;;;;;;1.67;1.57;;;14.60;58.30;15.10;102030.00;;;;4972333;28;20263;-51
2023/04/04 06:25:31;;;;;;;1.87;1.70;;;14.60;58.30;15.10;102026.00;;;;4973028;28;20184;-51
2023/04/04 06:27:58;;;;;;;1.80;1.70;;;14.60;58.30;15.10;102030.00;;;;4985366;28;20176;-51
2023/04/04 06:30:24;;;;;;;1.60;1.50;;;14.60;58.40;15.10;102033.00;;;;4988582;28;20597;-51
2023/04/04 06:32:49;;;;;;;2.07;1.70;;;14.60;58.40;15.10;102040.00;;;;4992042;28;20401;-51
2023/04/04 06:35:15;;;;;;;2.50;1.70;;;14.60;58.40;15.10;102034.00;;;;4992877;28;20223;-51
2023/04/04 06:37:41;;;;;;;1.80;1.70;;;14.60;58.30;15.20;102025.00;;;;4993085;28;20230;-51
2023/04/04 06:40:07;;;;;;;1.63;1.50;;;14.60;58.30;15.20;102028.00;;;;4992380;28;20173;-51
2023/04/04 06:42:33;;;;;;;1.70;1.60;;;14.60;58.40;15.10;102023.00;;;;4992246;28;20184;-51
2023/04/04 06:44:59;;;;;;;1.77;1.67;;;14.60;58.40;15.20;102036.00;;;;4992087;28;20297;-51
2023/04/04 06:47:25;;;;;;;1.60;1.50;;;14.60;58.40;15.20;102032.00;;;;4992706;28;20204;-50
2023/04/04 06:49:51;;;;;;;1.97;1.73;;;14.60;58.40;15.10;102032.00;;;;4992255;28;20678;-51
2023/04/04 06:52:17;;;;;;;1.50;1.40;;;14.50;58.40;15.10;102040.00;;;;4991738;28;20204;-52
2023/04/04 06:54:43;;;;;;;2.00;1.57;;;14.60;58.60;15.10;102035.00;;;;4989103;28;20242;-50
2023/04/04 06:57:09;;;;;;;1.47;1.37;;;14.50;58.50;15.10;102044.00;;;;4975129;28;20179;-51
2023/04/04 06:59:35;;;;;;;1.60;1.50;;;14.50;58.50;15.10;102041.00;;;;4992206;28;20172;-51
2023/04/04 07:02:00;;;;;;;1.87;1.67;;;14.50;58.50;15.10;102042.00;;;;4992476;28;20173;-51
2023/04/04 07:04:26;;;;;;;1.67;1.57;;;14.50;58.50;15.10;101931.00;;;;4990810;28;20196;-51
2023/04/04 07:06:52;;;;;;;1.80;1.70;;;14.60;58.50;15.10;102052.00;;;;4992376;28;20263;-50
2023/04/04 07:09:18;;;;;;;1.70;1.60;;;14.60;58.50;15.10;102046.00;;;;4992072;28;20176;-52
2023/04/04 07:11:44;;;;;;;1.80;1.70;;;14.60;58.50;15.10;102053.00;;;;4990792;28;20169;-51
2023/04/04 07:14:10;;;;;;;1.77;1.67;;;14.60;58.60;15.20;102043.00;;;;4991080;28;20576;-52
2023/04/04 07:16:35;;;;;;;1.60;1.50;;;14.60;58.70;15.10;102052.00;;;;4990547;28;20173;-51
2023/04/04 07:19:01;;;;;;;1.90;1.70;;;14.50;58.50;15.10;102047.00;;;;4992239;28;20169;-51
2023/04/04 07:21:27;;;;;;;1.87;1.60;;;14.60;58.60;15.10;102055.00;;;;4992007;28;20678;-51
2023/04/04 07:23:53;;;;;;;1.60;1.50;;;14.60;58.70;15.10;102056.00;;;;4990498;28;20635;-51
2023/04/04 07:26:20;;;;;;;1.60;1.50;;;14.50;58.60;15.10;102052.00;;;;4991822;28;20176;-51
2023/04/04 07:28:45;;;;;;;1.50;1.40;;;14.60;58.70;15.10;102050.00;;;;4981240;28;20185;-51
2023/04/04 07:31:13;;;;;;;1.73;1.63;;;14.60;58.70;15.10;102053.00;;;;4971591;28;20201;-51
2023/04/04 07:33:39;;;;;;;1.60;1.50;;;14.60;59.00;15.10;102055.00;;;;4969989;28;20773;-50
2023/04/04 07:36:05;;;;;;;2.37;1.60;;;14.60;59.10;15.10;102053.00;;;;4971041;28;20177;-51
2023/04/04 07:38:31;;;;;;;1.90;1.70;;;14.60;59.60;15.10;102052.00;;;;4971862;28;20600;-51
2023/04/04 07:40:56;;;;;;;1.93;1.80;;;14.60;59.80;15.10;102051.00;;;;4971787;28;20189;-50
2023/04/04 07:43:22;;;;;;;10.03;2.10;;;14.60;60.40;15.10;102059.00;;;;4972465;28;20204;-49
2023/04/04 07:45:48;;;;;;;4.77;2.00;;;14.60;60.40;15.20;102047.00;;;;4972550;28;20199;-50
2023/04/04 07:48:14;;;;;;;2.87;1.80;;;14.60;60.00;15.20;102053.00;;;;4972446;28;20256;-50
2023/04/04 07:50:40;;;;;;;2.67;1.57;;;14.60;60.00;15.20;102057.00;;;;4981981;28;20195;-49
2023/04/04 07:53:06;;;;;;;1.73;1.63;;;14.60;59.90;15.10;102049.00;;;;4991111;28;20204;-50
2023/04/04 07:55:31;;;;;;;3.43;1.80;;;14.60;59.80;15.20;102050.00;;;;4991013;28;20207;-50
2023/04/04 07:57:57;;;;;;;2.97;1.73;;;14.60;59.80;15.20;102038.00;;;;4991467;28;20200;-50
2023/04/04 08:00:25;;;;;;;3.77;1.70;;;14.60;59.80;15.10;102041.00;;;;4992305;28;20183;-51
2023/04/04 08:02:54;;;;;;;3.43;1.80;;;14.60;59.80;15.20;102054.00;;;;4991154;28;20251;-51
2023/04/04 08:05:20;;;;;;;2.30;1.80;;;14.60;59.80;15.20;102047.00;;;;4989225;28;20207;-50
2023/04/04 08:07:46;;;;;;;1.73;1.63;;;14.60;59.80;15.10;102047.00;;;;4990664;28;20176;-51
2023/04/04 08:10:12;;;;;;;1.70;1.60;;;14.60;59.80;15.20;102041.00;;;;4991167;28;20180;-51
2023/04/04 08:12:38;;;;;;;1.80;1.70;;;14.60;59.80;15.20;102020.00;;;;4990867;28;20204;-50
2023/04/04 08:15:04;;;;;;;1.93;1.77;;;14.60;59.80;15.20;102041.00;;;;4990571;28;20727;-50
2023/04/04 08:17:30;;;;;;;1.70;1.60;;;14.60;59.80;15.20;102032.00;;;;4990682;28;20181;-51
2023/04/04 08:19:56;;;;;;;1.80;1.70;;;14.60;59.80;15.20;102035.00;;;;4990800;28;20604;-51
2023/04/04 08:22:22;;;;;;;1.53;1.43;;;14.60;59.80;15.20;102032.00;;;;4990725;28;20187;-50
2023/04/04 08:24:48;;;;;;;1.60;1.50;;;14.60;59.80;15.20;102021.00;;;;4990772;28;20200;-50
2023/04/04 08:27:20;;;;;;;1.77;1.60;;;14.60;59.80;15.20;102021.00;;;;5066999;28;20559;-50
2023/04/04 08:29:46;;;;;;;1.87;1.70;;;14.60;59.90;15.20;102031.00;;;;5047504;28;20178;-51
2023/04/04 08:32:13;;;;;;;1.53;1.43;;;14.60;59.80;15.20;102025.00;;;;5046633;28;20182;-48
2023/04/04 08:34:40;;;;;;;1.70;1.60;;;14.60;59.80;15.20;102012.00;;;;5047193;28;20202;-51
2023/04/04 08:37:09;;;;;;;1.80;1.67;;;14.60;59.90;15.20;102019.00;;;;5046928;28;20207;-49
2023/04/04 08:39:36;;;;;;;1.80;1.70;;;14.60;59.90;15.20;102030.00;;;;5047444;28;20181;-50
2023/04/04 08:42:04;;;;;;;1.60;1.50;;;14.60;59.90;15.20;102023.00;;;;5047191;28;20182;-49
2023/04/04 08:44:30;;;;;;;1.60;1.50;;;14.60;59.90;15.20;102021.00;;;;5046588;28;20208;-49
2023/04/04 08:47:02;;;;;;;1.20;1.20;;;14.60;60.00;15.20;102017.00;;;;5046532;28;20214;-49
2023/04/04 08:49:28;;;;;;;2.30;1.63;;;14.60;60.00;15.20;102018.00;;;;5046879;28;20170;-51
2023/04/04 08:51:55;;;;;;;2.53;1.60;;;14.60;60.10;15.20;102023.00;;;;5045975;28;20174;-50
2023/04/04 08:54:21;;;;;;;4.70;1.70;;;14.60;61.00;15.20;102015.00;;;;5046321;28;20201;-50
2023/04/04 08:56:47;;;;;;;3.37;1.50;;;14.60;60.90;15.20;102023.00;;;;5044868;28;20178;-50
2023/04/04 08:59:14;;;;;;;2.63;1.80;;;14.60;60.90;15.20;102029.00;;;;5046400;28;20185;-52
2023/04/04 09:01:41;;;;;;;4.80;1.60;;;14.60;61.30;15.20;102024.00;;;;5045739;28;20210;-49
2023/04/04 09:04:08;;;;;;;2.97;1.80;;;14.60;61.20;15.20;102023.00;;;;5046085;28;20287;-50
2023/04/04 09:06:34;;;;;;;5.03;1.80;;;14.60;61.40;15.20;102035.00;;;;5044272;28;20204;-50
2023/04/04 09:09:00;;;;;;;5.50;1.77;;;14.70;61.60;15.20;102020.00;;;;5045410;28;20227;-50
2023/04/04 09:11:26;;;;;;;4.20;1.57;;;14.70;61.90;15.30;102023.00;;;;5044418;28;20174;-49
2023/04/04 09:13:51;;;;;;;3.17;1.87;;;14.70;62.10;15.30;102025.00;;;;5044853;28;20206;-49
2023/04/04 09:16:17;;;;;;;5.17;1.70;;;14.70;62.30;15.30;102021.00;;;;5045753;28;20179;-50
2023/04/04 09:18:43;;;;;;;7.27;1.70;;;14.70;62.50;15.30;102027.00;;;;5028399;28;20182;-50
2023/04/04 09:21:12;;;;;;;2.73;1.70;;;14.70;62.90;15.30;102019.00;;;;5046032;28;20175;-50
2023/04/04 09:23:38;;;;;;;3.53;1.90;;;14.70;62.90;15.30;102027.00;;;;5046091;28;20222;-49
2023/04/04 09:26:03;;;;;;;4.20;1.80;;;14.70;62.90;15.30;101939.00;;;;5046204;28;20295;-50
2023/04/04 09:28:30;;;;;;;3.27;1.90;;;14.70;62.80;15.30;102023.00;;;;5044305;28;20186;-50
2023/04/04 09:30:55;;;;;;;13.07;2.40;;;14.70;63.30;15.30;102028.00;;;;5030646;28;20179;-50
2023/04/04 09:33:23;;;;;;;7.37;2.10;;;14.80;64.40;15.30;102012.00;;;;5025540;28;20553;-50
2023/04/04 09:35:58;;;;;;;13.03;2.50;;;14.80;63.60;15.30;102011.00;;;;5025984;28;20179;-53
2023/04/04 09:38:25;;;;;;;8.13;2.10;;;14.80;63.40;15.30;102001.00;;;;5014130;28;20649;-49
2023/04/04 09:40:51;;;;;;;4.97;2.00;;;14.80;63.30;15.30;102006.00;;;;4995411;28;20179;-51
2023/04/04 09:43:17;;;;;;;4.37;1.90;;;14.80;63.40;15.30;102008.00;;;;5012411;28;20206;-49
2023/04/04 09:45:44;;;;;;;4.57;1.80;;;14.80;63.20;15.30;102006.00;;;;4994379;28;20196;-48
2023/04/04 09:48:10;;;;;;;6.33;1.90;;;14.70;62.90;15.30;102009.00;;;;4995541;28;20688;-50
2023/04/04 09:50:37;;;;;;;4.83;1.70;;;14.70;62.80;15.30;102020.00;;;;5012725;28;20255;-50
2023/04/04 09:53:02;;;;;;;5.13;1.90;;;14.80;62.90;15.30;102011.00;;;;5018468;28;20184;-50
2023/04/04 09:55:35;;;;;;;5.37;1.90;;;14.80;62.70;15.30;101994.00;;;;5022395;28;20172;-51
2023/04/04 09:58:18;;;;;;;11.27;1.90;;;14.70;62.70;15.40;102009.00;;;;5033182;28;20171;-51
2023/04/04 10:00:47;;;;;;;5.13;2.00;;;14.70;62.50;15.40;101981.00;;;;5043359;28;20199;-50
2023/04/04 10:03:17;;;;;;;3.47;1.70;;;14.80;62.50;15.40;101988.00;;;;5039744;28;20198;-50
2023/04/04 10:05:45;;;;;;;6.03;2.03;;;14.70;62.40;15.40;101994.00;;;;5033255;28;20202;-49
2023/04/04 10:08:20;;;;;;;4.13;1.57;;;14.80;62.40;15.40;101993.00;;;;5032517;28;20275;-50
2023/04/04 10:10:48;;;;;;;3.23;1.80;;;14.80;62.30;15.40;101984.00;;;;5032496;28;20610;-50
2023/04/04 10:13:21;;;;;;;3.17;1.77;;;14.80;62.30;15.40;101990.00;;;;5032276;28;20253;-50
2023/04/04 10:15:47;;;;;;;4.17;2.00;;;14.70;62.30;15.40;101986.00;;;;5042339;28;20649;-52
2023/04/04 10:18:14;;;;;;;4.33;1.70;;;14.80;62.30;15.40;101980.00;;;;5037057;28;20186;-50
2023/04/04 10:20:41;;;;;;;1.73;1.63;;;14.80;62.20;15.40;101974.00;;;;5031525;28;20629;-51
2023/04/04 10:23:07;;;;;;;5.33;1.60;;;14.80;62.10;15.40;101973.00;;;;5021392;28;20195;-51
2023/04/04 10:25:32;;;;;;;4.20;1.60;;;14.80;62.10;15.40;101961.00;;;;5010888;28;20366;-50
2023/04/04 10:27:58;;;;;;;3.33;1.80;;;14.80;62.10;15.40;101967.00;;;;4994947;28;20179;-51
2023/04/04 10:30:24;;;;;;;4.33;1.87;;;14.80;62.10;15.40;101965.00;;;;5012408;28;20176;-50
2023/04/04 10:33:00;;;;;;;4.47;1.80;;;14.80;62.10;15.40;101978.00;;;;5012220;28;20183;-50
2023/04/04 10:35:27;;;;;;;2.57;1.90;;;14.80;62.10;15.40;101973.00;;;;4995901;28;20179;-49
2023/04/04 10:38:00;;;;;;;2.83;1.60;;;14.80;62.30;15.40;101968.00;;;;4995064;28;20187;-49
2023/04/04 10:40:34;;;;;;;1.80;1.70;;;14.80;62.20;15.40;101953.00;;;;4995017;28;20180;-50
2023/04/04 10:43:02;;;;;;;2.90;1.83;;;14.80;62.20;15.40;101956.00;;;;5000632;28;20752;-50
2023/04/04 10:45:28;;;;;;;2.33;1.50;;;14.80;62.20;15.40;101944.00;;;;5017510;28;20192;-49